Time;durP1;ratioP1;P1;durP2;ratioP2;P2;SDS_P1;SDS_P2;PMS_P1;PMS_P2;Temp;Humidity;BMP_temperature;BMP_pressure;BME280_temperature;BME280_humidity;BME280_pressure;Samples;Min_cycle;Max_cycle;Signal;HPM_P1;HPM_P2
2021/05/25 00:01:48;;;;;;;17.02;10.27;;;;;9.30;101024.00;;;;5065646;28;20021;-67
2021/05/25 00:04:14;;;;;;;15.35;9.20;;;;;9.30;101018.00;;;;5065964;28;20028;-69
2021/05/25 00:06:41;;;;;;;13.88;8.80;;;;;9.30;101024.00;;;;5065644;28;20232;-70
2021/05/25 00:09:07;;;;;;;14.05;8.90;;;;;9.30;101018.00;;;;5065835;28;20055;-70
2021/05/25 00:11:34;;;;;;;13.23;8.77;;;;;9.20;101015.00;;;;5065899;28;20024;-67
2021/05/25 00:14:03;;;;;;;18.73;10.45;;;;;9.20;101021.00;;;;5063385;28;20025;-69
2021/05/25 00:16:30;;;;;;;18.38;10.20;;;;;9.10;101027.00;;;;5064971;28;20032;-67
2021/05/25 00:18:57;;;;;;;18.13;10.90;;;;;9.10;101028.00;;;;5065964;28;20021;-68
2021/05/25 00:21:23;;;;;;;21.15;12.45;;;;;9.10;101027.00;;;;5066765;28;20021;-69
2021/05/25 00:23:50;;;;;;;21.55;11.27;;;;;9.00;101017.00;;;;5066199;28;20098;-68
2021/05/25 00:26:16;;;;;;;13.43;10.32;;;;;9.00;101006.00;;;;5066424;28;20841;-70
2021/05/25 00:28:43;;;;;;;20.15;11.02;;;;;9.00;101009.00;;;;5065463;28;21138;-70
2021/05/25 00:31:09;;;;;;;18.92;11.23;;;;;8.90;101015.00;;;;5065369;28;20077;-68
2021/05/25 00:33:36;;;;;;;23.35;11.90;;;;;8.80;101008.00;;;;5065546;28;20016;-69
2021/05/25 00:36:03;;;;;;;18.63;11.52;;;;;8.90;101017.00;;;;5066282;28;20032;-68
2021/05/25 00:38:29;;;;;;;14.75;10.90;;;;;8.90;101008.00;;;;5064253;28;20050;-70
2021/05/25 00:40:56;;;;;;;14.00;10.63;;;;;8.90;101012.00;;;;5066099;28;20059;-70
2021/05/25 00:43:23;;;;;;;15.77;9.90;;;;;8.90;101001.00;;;;5065283;28;20029;-70
2021/05/25 00:45:49;;;;;;;14.27;9.48;;;;;9.00;101012.00;;;;5065763;28;20103;-67
2021/05/25 00:48:16;;;;;;;11.85;8.95;;;;;9.00;101012.00;;;;5065643;28;20057;-68
2021/05/25 00:50:42;;;;;;;13.02;8.00;;;;;9.10;101020.00;;;;5065968;28;20052;-67
2021/05/25 00:53:09;;;;;;;14.57;7.85;;;;;9.10;101032.00;;;;5065705;28;20012;-69
2021/05/25 00:55:38;;;;;;;12.10;7.43;;;;;9.20;101026.00;;;;5066144;28;20027;-70
2021/05/25 00:58:07;;;;;;;13.88;7.10;;;;;9.10;101028.00;;;;5065819;28;20038;-69
2021/05/25 01:00:39;;;;;;;13.65;7.97;;;;;9.20;101032.00;;;;5066078;28;20016;-67
2021/05/25 01:03:08;;;;;;;11.30;7.57;;;;;9.10;101035.00;;;;5066044;28;20029;-70
2021/05/25 01:05:35;;;;;;;10.27;8.07;;;;;9.10;101020.00;;;;5065692;28;20036;-68
2021/05/25 01:08:02;;;;;;;13.38;8.48;;;;;9.00;101037.00;;;;5065913;28;20060;-68
2021/05/25 01:10:35;;;;;;;12.55;9.05;;;;;8.90;101047.00;;;;5065668;28;20029;-67
2021/05/25 01:13:08;;;;;;;15.98;9.27;;;;;8.80;101046.00;;;;5065281;28;20035;-68
2021/05/25 01:15:36;;;;;;;11.75;9.20;;;;;8.90;101036.00;;;;5065785;28;20134;-68
2021/05/25 01:18:06;;;;;;;12.48;9.10;;;;;8.80;101037.00;;;;5068906;28;20029;-70
2021/05/25 01:20:35;;;;;;;12.75;8.95;;;;;8.80;101029.00;;;;5069944;28;20029;-70
2021/05/25 01:23:01;;;;;;;14.90;8.93;;;;;8.80;101020.00;;;;5070156;28;20033;-68
2021/05/25 01:25:28;;;;;;;10.35;8.02;;;;;8.90;101041.00;;;;5069176;28;20421;-69
2021/05/25 01:27:57;;;;;;;12.65;7.72;;;;;8.80;101025.00;;;;5069903;28;20025;-66
2021/05/25 01:30:32;;;;;;;13.38;9.05;;;;;8.80;101024.00;;;;5069830;28;20086;-70
2021/05/25 01:32:59;;;;;;;14.90;8.32;;;;;8.70;101041.00;;;;5068574;28;20032;-67
2021/05/25 01:35:27;;;;;;;10.77;6.93;;;;;8.70;101035.00;;;;5070235;28;20020;-69
2021/05/25 01:37:55;;;;;;;16.42;7.97;;;;;8.70;101032.00;;;;5068060;28;20139;-68
2021/05/25 01:40:22;;;;;;;15.52;7.60;;;;;8.70;101041.00;;;;5069663;28;20506;-70
2021/05/25 01:42:49;;;;;;;17.30;7.70;;;;;8.70;101057.00;;;;5069479;28;20078;-71
2021/05/25 01:45:19;;;;;;;12.52;7.95;;;;;8.60;101050.00;;;;5069089;28;20104;-66
2021/05/25 01:47:46;;;;;;;19.40;8.15;;;;;8.60;101044.00;;;;5069408;28;20044;-70
2021/05/25 01:50:15;;;;;;;13.07;8.55;;;;;8.60;101052.00;;;;5068177;28;20037;-67
2021/05/25 01:52:48;;;;;;;15.23;8.25;;;;;8.70;101058.00;;;;5069268;28;20024;-69
2021/05/25 01:55:29;;;;;;;15.90;8.60;;;;;8.70;101050.00;;;;5069300;28;20106;-69
2021/05/25 01:57:59;;;;;;;12.18;7.65;;;;;8.70;101045.00;;;;5069099;28;20024;-68
2021/05/25 02:00:26;;;;;;;12.05;7.72;;;;;8.80;101048.00;;;;5068633;28;20063;-66
2021/05/25 02:02:52;;;;;;;12.48;7.95;;;;;8.70;101060.00;;;;5068409;28;20029;-68
2021/05/25 02:05:19;;;;;;;14.93;8.23;;;;;8.70;101051.00;;;;5068970;28;20603;-67
2021/05/25 02:07:53;;;;;;;13.10;7.70;;;;;8.60;101041.00;;;;5068989;28;20028;-67
2021/05/25 02:10:34;;;;;;;10.30;7.68;;;;;8.50;101055.00;;;;5069095;28;20032;-69
2021/05/25 02:13:09;;;;;;;10.45;7.43;;;;;8.40;101045.00;;;;5069131;28;20431;-67
2021/05/25 02:15:36;;;;;;;12.30;7.38;;;;;8.40;101059.00;;;;5068826;28;20028;-69
2021/05/25 02:18:08;;;;;;;11.77;6.88;;;;;8.30;101051.00;;;;5068867;28;20117;-68
2021/05/25 02:20:35;;;;;;;;;;;;;8.40;101058.00;;;;5069885;28;20510;-68
2021/05/25 02:23:02;;;;;;;9.00;6.50;;;;;8.30;101048.00;;;;5068598;28;19916;-68
2021/05/25 02:25:31;;;;;;;13.93;6.15;;;;;8.20;101059.00;;;;5068073;28;20020;-69
2021/05/25 02:27:58;;;;;;;10.95;7.60;;;;;8.20;101034.00;;;;5067743;28;20025;-69
2021/05/25 02:30:25;;;;;;;8.55;6.40;;;;;8.30;101063.00;;;;5068300;28;20093;-67
2021/05/25 02:32:51;;;;;;;9.15;6.00;;;;;8.30;101056.00;;;;5068529;28;20033;-70
2021/05/25 02:35:18;;;;;;;9.13;6.00;;;;;8.30;101039.00;;;;5068479;28;20012;-68
2021/05/25 02:37:45;;;;;;;12.15;5.53;;;;;8.40;101070.00;;;;5068886;28;20032;-70
2021/05/25 02:40:12;;;;;;;10.77;5.80;;;;;8.30;101053.00;;;;5068185;28;20037;-65
2021/05/25 02:42:38;;;;;;;8.07;5.53;;;;;8.40;101050.00;;;;5068653;28;20028;-70
2021/05/25 02:45:07;;;;;;;9.70;4.95;;;;;8.40;101043.00;;;;5068146;28;20094;-70
2021/05/25 02:47:34;;;;;;;6.40;5.20;;;;;8.30;101052.00;;;;5068303;28;20143;-69
2021/05/25 02:50:07;;;;;;;8.38;5.43;;;;;8.30;101054.00;;;;5067930;28;20039;-70
2021/05/25 02:52:48;;;;;;;5.97;4.68;;;;;8.20;101043.00;;;;5067842;28;20717;-67
2021/05/25 02:55:21;;;;;;;5.75;4.75;;;;;8.20;101054.00;;;;5067206;28;20442;-69
2021/05/25 02:57:47;;;;;;;6.38;4.45;;;;;8.10;101036.00;;;;5068176;28;20565;-69
2021/05/25 03:00:27;;;;;;;8.13;4.70;;;;;8.00;101031.00;;;;5068315;28;20017;-65
2021/05/25 03:02:54;;;;;;;7.47;5.30;;;;;7.90;101040.00;;;;5068325;28;20020;-69
2021/05/25 03:05:25;;;;;;;6.47;5.10;;;;;7.90;101037.00;;;;5068090;28;20020;-66
2021/05/25 03:07:53;;;;;;;12.07;5.53;;;;;7.90;101029.00;;;;5067918;28;20029;-69
2021/05/25 03:10:21;;;;;;;9.02;5.68;;;;;7.80;101026.00;;;;5067709;28;20020;-67
2021/05/25 03:12:48;;;;;;;12.20;6.35;;;;;7.70;101035.00;;;;5068036;28;20027;-66
2021/05/25 03:15:19;;;;;;;10.55;7.57;;;;;7.80;101037.00;;;;5068145;28;20087;-67
2021/05/25 03:17:46;;;;;;;8.23;6.78;;;;;7.90;101031.00;;;;5067417;28;20482;-68
2021/05/25 03:20:15;;;;;;;8.07;6.05;;;;;8.00;101038.00;;;;5067022;28;20033;-66
2021/05/25 03:22:42;;;;;;;7.70;5.15;;;;;8.00;101041.00;;;;5067655;28;20035;-65
2021/05/25 03:25:11;;;;;;;7.15;5.15;;;;;8.00;101034.00;;;;5067730;28;20028;-70
2021/05/25 03:27:38;;;;;;;8.18;4.88;;;;;8.10;101029.00;;;;5067432;28;20028;-70
2021/05/25 03:30:08;;;;;;;6.57;4.70;;;;;8.00;101027.00;;;;5067746;28;20028;-68
2021/05/25 03:32:36;;;;;;;7.65;4.35;;;;;8.10;101036.00;;;;5067242;28;20035;-67
2021/05/25 03:35:05;;;;;;;7.05;4.35;;;;;8.10;101050.00;;;;5067683;28;20070;-69
2021/05/25 03:37:33;;;;;;;5.45;3.80;;;;;8.00;101034.00;;;;5067476;28;20098;-69
2021/05/25 03:39:59;;;;;;;4.32;3.90;;;;;8.00;101044.00;;;;5066638;28;20100;-66
2021/05/25 03:42:26;;;;;;;8.52;6.13;;;;;7.90;101025.00;;;;5067227;28;20571;-68
2021/05/25 03:44:53;;;;;;;7.53;5.65;;;;;7.80;101019.00;;;;5066909;28;20024;-68
2021/05/25 03:47:20;;;;;;;5.05;4.55;;;;;7.80;101026.00;;;;5066901;28;20467;-70
2021/05/25 03:49:47;;;;;;;16.38;11.32;;;;;7.60;101024.00;;;;5066686;28;20037;-69
2021/05/25 03:52:14;;;;;;;13.23;10.15;;;;;7.40;101027.00;;;;5067270;28;20051;-67
2021/05/25 03:54:49;;;;;;;15.40;8.60;;;;;7.30;101029.00;;;;5067027;28;20108;-65
2021/05/25 03:59:55;;;;;;;7.20;5.93;;;;;7.30;101015.00;;;;5066748;28;20035;-68
2021/05/25 04:02:21;;;;;;;9.95;6.72;;;;;7.30;101028.00;;;;5066871;28;20032;-69
2021/05/25 04:04:49;;;;;;;9.25;6.40;;;;;7.30;101035.00;;;;5066663;28;20052;-66
2021/05/25 04:07:15;;;;;;;6.40;4.93;;;;;7.30;101016.00;;;;5066842;28;20685;-66
2021/05/25 04:09:42;;;;;;;8.98;6.05;;;;;7.20;101022.00;;;;5065901;28;20123;-70
2021/05/25 04:12:09;;;;;;;7.93;5.20;;;;;7.30;101021.00;;;;5066404;28;20388;-69
2021/05/25 04:14:36;;;;;;;7.63;5.00;;;;;7.20;101024.00;;;;5066792;28;20613;-68
2021/05/25 04:17:04;;;;;;;7.70;5.20;;;;;7.20;101045.00;;;;5066440;28;20032;-69
2021/05/25 04:19:31;;;;;;;6.60;4.82;;;;;7.20;101013.00;;;;5066364;28;20044;-69
2021/05/25 04:21:57;;;;;;;5.60;4.75;;;;;7.20;101023.00;;;;5066530;28;20029;-69
2021/05/25 04:24:24;;;;;;;5.68;4.25;;;;;7.20;101025.00;;;;5066743;28;20024;-68
2021/05/25 04:26:50;;;;;;;6.18;3.63;;;;;7.20;101017.00;;;;5066454;28;20055;-67
2021/05/25 04:29:17;;;;;;;5.43;4.10;;;;;7.20;101013.00;;;;5066045;28;20035;-68
2021/05/25 04:31:43;;;;;;;4.30;3.67;;;;;7.10;101005.00;;;;5066029;28;20486;-66
2021/05/25 04:34:10;;;;;;;6.28;4.30;;;;;7.10;101022.00;;;;5066619;28;20031;-68
2021/05/25 04:36:36;;;;;;;6.40;3.65;;;;;7.10;101013.00;;;;5066054;28;20020;-70
2021/05/25 04:39:04;;;;;;;5.25;3.83;;;;;7.20;101007.00;;;;5066041;28;20025;-68
2021/05/25 04:41:30;;;;;;;5.22;3.80;;;;;7.20;101013.00;;;;5066080;28;20467;-69
2021/05/25 04:43:57;;;;;;;6.72;4.07;;;;;7.20;101019.00;;;;5066334;28;20039;-67
2021/05/25 04:46:23;;;;;;;5.90;3.60;;;;;7.10;101002.00;;;;5066626;28;20513;-66
2021/05/25 04:48:50;;;;;;;5.60;3.63;;;;;7.00;101000.00;;;;5065883;28;20071;-68
2021/05/25 04:51:17;;;;;;;8.20;3.97;;;;;6.90;101006.00;;;;5065626;28;20356;-68
2021/05/25 04:53:43;;;;;;;5.50;3.63;;;;;6.80;100998.00;;;;5065192;28;20021;-68
2021/05/25 04:56:10;;;;;;;7.13;3.90;;;;;6.70;100986.00;;;;5065985;28;20066;-66
2021/05/25 04:58:36;;;;;;;4.28;3.67;;;;;6.70;100994.00;;;;5065926;28;20024;-66
2021/05/25 05:01:03;;;;;;;6.97;3.75;;;;;6.70;100998.00;;;;5064317;28;20544;-67
2021/05/25 05:03:29;;;;;;;6.65;3.72;;;;;6.70;100974.00;;;;5065649;28;20021;-69
2021/05/25 05:05:56;;;;;;;4.10;3.53;;;;;6.70;101011.00;;;;5065664;28;20024;-68
2021/05/25 05:08:22;;;;;;;8.70;4.72;;;;;6.70;100991.00;;;;5065674;28;20115;-69
2021/05/25 05:10:49;;;;;;;5.07;3.97;;;;;6.80;101001.00;;;;5065908;28;20502;-66
2021/05/25 05:13:16;;;;;;;6.72;4.35;;;;;6.80;100988.00;;;;5066093;28;20021;-67
2021/05/25 05:15:42;;;;;;;5.55;3.80;;;;;6.80;100973.00;;;;5065871;28;20024;-66
2021/05/25 05:18:09;;;;;;;5.53;3.90;;;;;6.90;100980.00;;;;5065629;28;20020;-67
2021/05/25 05:20:35;;;;;;;4.38;3.22;;;;;6.90;100983.00;;;;5065383;28;20447;-70
2021/05/25 05:23:02;;;;;;;4.28;3.35;;;;;6.80;100975.00;;;;5065691;28;20372;-67
2021/05/25 05:25:28;;;;;;;5.43;3.40;;;;;6.80;100993.00;;;;5065900;28;20028;-69
2021/05/25 05:27:55;;;;;;;5.70;3.47;;;;;6.80;100977.00;;;;5065667;28;20079;-69
2021/05/25 05:30:22;;;;;;;5.38;4.53;;;;;6.80;100970.00;;;;5065840;28;20042;-65
2021/05/25 05:32:49;;;;;;;7.15;5.93;;;;;6.80;100976.00;;;;5065753;28;20059;-67
2021/05/25 05:35:15;;;;;;;9.70;8.15;;;;;6.70;100982.00;;;;5065378;28;20056;-69
2021/05/25 05:37:42;;;;;;;22.42;15.57;;;;;6.70;100965.00;;;;5065568;28;20024;-66
2021/05/25 05:40:09;;;;;;;23.65;15.60;;;;;6.70;100966.00;;;;5065804;28;20024;-68
2021/05/25 05:42:35;;;;;;;15.88;10.60;;;;;6.70;100956.00;;;;5065863;28;20034;-69
2021/05/25 05:45:02;;;;;;;10.80;8.63;;;;;6.70;100945.00;;;;5065845;28;20372;-70
2021/05/25 05:47:29;;;;;;;12.32;8.35;;;;;6.70;100941.00;;;;5065393;28;20040;-68
2021/05/25 05:49:55;;;;;;;9.30;7.80;;;;;6.80;100944.00;;;;5064573;28;20029;-68
2021/05/25 05:52:22;;;;;;;10.70;8.07;;;;;6.90;100937.00;;;;5065487;28;20036;-68
2021/05/25 05:54:48;;;;;;;8.05;6.97;;;;;7.00;100936.00;;;;5065460;28;20112;-67
2021/05/25 05:57:15;;;;;;;11.80;5.57;;;;;7.00;100946.00;;;;5065125;28;20369;-71
2021/05/25 05:59:41;;;;;;;5.97;4.72;;;;;7.20;100948.00;;;;5065564;28;20064;-71
2021/05/25 06:02:08;;;;;;;3.03;2.38;;;;;7.30;100935.00;;;;5065325;28;20032;-69
2021/05/25 06:04:34;;;;;;;2.33;1.73;;;;;7.30;100943.00;;;;5068828;28;20447;-70
2021/05/25 06:07:01;;;;;;;3.58;3.28;;;;;7.40;100925.00;;;;5069307;28;20062;-70
2021/05/25 06:09:27;;;;;;;3.63;2.53;;;;;7.40;100918.00;;;;5068708;28;20043;-67
2021/05/25 06:11:54;;;;;;;2.20;1.90;;;;;7.40;100923.00;;;;5069093;28;20039;-65
2021/05/25 06:14:21;;;;;;;1.75;1.65;;;;;7.40;100913.00;;;;5069119;28;20402;-65
2021/05/25 06:16:47;;;;;;;2.53;1.80;;;;;7.30;100926.00;;;;5068790;28;20028;-66
2021/05/25 06:19:14;;;;;;;8.32;5.00;;;;;7.00;100925.00;;;;5068286;28;20033;-68
2021/05/25 06:21:40;;;;;;;5.93;5.32;;;;;6.80;100917.00;;;;5068822;28;20038;-68
2021/05/25 06:24:07;;;;;;;5.78;3.10;;;;;6.80;100907.00;;;;5069370;28;20020;-68
2021/05/25 06:26:34;;;;;;;4.28;3.80;;;;;6.60;100906.00;;;;5069113;28;20044;-68
2021/05/25 06:29:00;;;;;;;7.22;3.35;;;;;6.50;100917.00;;;;5067377;28;20032;-65
2021/05/25 06:31:27;;;;;;;3.03;2.42;;;;;6.50;100915.00;;;;5068496;28;20107;-70
2021/05/25 06:33:53;;;;;;;5.53;3.03;;;;;6.50;100905.00;;;;5069220;28;20021;-69
2021/05/25 06:36:20;;;;;;;3.00;2.30;;;;;6.50;100902.00;;;;5068839;28;20022;-71
2021/05/25 06:38:46;;;;;;;3.03;2.22;;;;;6.60;100902.00;;;;5068641;28;20074;-68
2021/05/25 06:41:13;;;;;;;2.53;1.88;;;;;6.50;100904.00;;;;5068046;28;20467;-71
2021/05/25 06:43:39;;;;;;;6.18;2.65;;;;;6.50;100893.00;;;;5068387;28;20044;-70
2021/05/25 06:46:07;;;;;;;1.95;1.67;;;;;6.50;100883.00;;;;5068714;28;20027;-71
2021/05/25 06:48:34;;;;;;;3.20;2.10;;;;;6.50;100894.00;;;;5068137;28;20086;-71
2021/05/25 06:51:06;;;;;;;3.28;2.10;;;;;6.60;100896.00;;;;5068746;28;20028;-69
2021/05/25 06:53:32;;;;;;;2.60;2.00;;;;;6.50;100884.00;;;;5067936;28;20032;-70
2021/05/25 06:55:59;;;;;;;4.47;2.17;;;;;6.60;100898.00;;;;5068134;28;20036;-69
2021/05/25 06:58:25;;;;;;;2.20;1.85;;;;;6.50;100897.00;;;;5068492;28;20031;-68
2021/05/25 07:00:52;;;;;;;3.03;2.10;;;;;6.60;100891.00;;;;5068240;28;20021;-68
2021/05/25 07:03:18;;;;;;;3.20;2.17;;;;;6.60;100905.00;;;;5068375;28;20410;-70
2021/05/25 07:05:45;;;;;;;1.92;1.70;;;;;6.50;100885.00;;;;5067477;28;20021;-70
2021/05/25 07:08:11;;;;;;;1.92;1.80;;;;;6.60;100889.00;;;;5067857;28;20097;-71
2021/05/25 07:10:38;;;;;;;7.85;6.15;;;;;6.50;100897.00;;;;5068145;28;20028;-68
2021/05/25 07:13:07;;;;;;;25.65;20.48;;;;;6.50;100879.00;;;;5067466;28;20037;-70
2021/05/25 07:15:33;;;;;;;21.65;15.50;;;;;6.50;100892.00;;;;5067142;28;20028;-68
2021/05/25 07:18:00;;;;;;;14.27;10.32;;;;;6.50;100892.00;;;;5067752;28;20063;-69
2021/05/25 07:20:27;;;;;;;11.55;9.90;;;;;6.30;100900.00;;;;5067845;28;20032;-70
2021/05/25 07:22:54;;;;;;;6.53;5.47;;;;;6.30;100881.00;;;;5067455;28;20063;-70
2021/05/25 07:25:26;;;;;;;5.25;4.50;;;;;6.40;100892.00;;;;5067525;28;20183;-69
2021/05/25 07:27:53;;;;;;;3.40;3.10;;;;;6.30;100898.00;;;;5067052;28;20032;-67
2021/05/25 07:30:21;;;;;;;2.58;2.20;;;;;6.30;100881.00;;;;5067350;28;20039;-67
2021/05/25 07:32:48;;;;;;;4.13;3.78;;;;;6.30;100894.00;;;;5067524;28;20025;-69
2021/05/25 07:35:15;;;;;;;3.35;2.78;;;;;6.10;100901.00;;;;5067332;28;20037;-68
2021/05/25 07:37:42;;;;;;;2.97;2.13;;;;;6.10;100919.00;;;;5066816;28;20033;-70
2021/05/25 07:40:10;;;;;;;2.92;2.00;;;;;6.20;100901.00;;;;5066525;28;20100;-68
2021/05/25 07:42:37;;;;;;;3.70;2.45;;;;;6.10;100898.00;;;;5067316;28;20027;-69
2021/05/25 07:45:04;;;;;;;1.98;1.77;;;;;6.10;100922.00;;;;5067396;28;20786;-67
2021/05/25 07:47:31;;;;;;;2.22;2.03;;;;;6.10;100910.00;;;;5067227;28;20059;-70
2021/05/25 07:50:12;;;;;;;2.42;1.90;;;;;6.10;100910.00;;;;5067020;28;20042;-68
2021/05/25 07:52:48;;;;;;;7.43;2.15;;;;;6.10;100909.00;;;;5067418;28;20029;-68
2021/05/25 07:55:18;;;;;;;2.15;1.95;;;;;6.10;100891.00;;;;5067160;28;20508;-69
2021/05/25 07:57:44;;;;;;;3.55;1.63;;;;;6.20;100913.00;;;;5067127;28;20034;-70
2021/05/25 08:00:12;;;;;;;2.95;1.90;;;;;6.20;100915.00;;;;5066767;28;20031;-70
2021/05/25 08:02:39;;;;;;;3.53;1.80;;;;;6.10;100912.00;;;;5066740;28;20078;-71
2021/05/25 08:05:07;;;;;;;4.35;1.83;;;;;6.10;100905.00;;;;5066602;28;20568;-70
2021/05/25 08:07:34;;;;;;;2.30;1.80;;;;;6.10;100923.00;;;;5066783;28;20029;-68
2021/05/25 08:10:03;;;;;;;2.22;1.55;;;;;6.00;100922.00;;;;5066947;28;20071;-68
2021/05/25 08:12:30;;;;;;;2.08;1.50;;;;;6.00;100927.00;;;;5066750;28;20044;-69
2021/05/25 08:14:58;;;;;;;2.53;1.80;;;;;5.90;100927.00;;;;5066498;28;20021;-71
2021/05/25 08:17:37;;;;;;;4.60;1.60;;;;;5.90;100926.00;;;;5067223;28;20139;-68
2021/05/25 08:20:16;;;;;;;5.68;1.85;;;;;5.80;100932.00;;;;5065987;28;20067;-69
2021/05/25 08:22:46;;;;;;;1.88;1.50;;;;;5.80;100939.00;;;;5066754;28;20082;-69
2021/05/25 08:25:14;;;;;;;5.47;1.83;;;;;5.80;100954.00;;;;5066240;28;20021;-70
2021/05/25 08:27:42;;;;;;;2.85;2.00;;;;;5.90;100938.00;;;;5066133;28;20020;-70
2021/05/25 08:30:10;;;;;;;3.83;1.83;;;;;5.80;100948.00;;;;5065748;28;20037;-70
2021/05/25 08:32:37;;;;;;;2.42;2.20;;;;;5.70;100960.00;;;;5065973;28;20027;-68
2021/05/25 08:35:05;;;;;;;2.80;2.35;;;;;5.70;100940.00;;;;5066155;28;20074;-69
2021/05/25 08:37:33;;;;;;;3.05;2.13;;;;;5.70;100959.00;;;;5066376;28;20032;-69
2021/05/25 08:40:05;;;;;;;3.60;2.10;;;;;5.70;100955.00;;;;5066360;28;20028;-68
2021/05/25 08:42:32;;;;;;;3.28;2.25;;;;;5.70;100964.00;;;;5066065;28;20024;-71
2021/05/25 08:45:01;;;;;;;3.58;2.60;;;;;5.70;100955.00;;;;5065812;28;20115;-70
2021/05/25 08:47:47;;;;;;;3.38;2.20;;;;;5.70;100967.00;;;;5065834;28;20050;-71
2021/05/25 08:50:15;;;;;;;2.63;2.40;;;;;5.60;100964.00;;;;5065985;28;20741;-69
2021/05/25 08:52:42;;;;;;;5.22;2.60;;;;;5.60;100969.00;;;;5065903;28;20123;-68
2021/05/25 08:55:11;;;;;;;5.55;2.70;;;;;5.50;100990.00;;;;5065805;28;20029;-70
2021/05/25 08:57:38;;;;;;;2.45;2.17;;;;;5.60;100968.00;;;;5066167;28;20083;-68
2021/05/25 09:00:09;;;;;;;3.58;2.10;;;;;5.60;100982.00;;;;5066277;28;20020;-69
2021/05/25 09:02:35;;;;;;;2.97;2.10;;;;;5.60;100986.00;;;;5066166;28;20445;-69
2021/05/25 09:05:11;;;;;;;2.38;2.05;;;;;5.60;100994.00;;;;5063461;28;20051;-70
2021/05/25 09:07:58;;;;;;;3.50;2.05;;;;;5.50;100994.00;;;;5064790;28;20521;-70
2021/05/25 09:10:37;;;;;;;3.28;2.05;;;;;5.60;101005.00;;;;5065915;28;20029;-69
2021/05/25 09:13:05;;;;;;;7.32;2.47;;;;;5.60;101009.00;;;;5065756;28;20147;-71
2021/05/25 09:15:37;;;;;;;2.53;2.33;;;;;5.50;101010.00;;;;5065643;28;20059;-69
2021/05/25 09:18:09;;;;;;;8.60;4.13;;;;;5.40;101010.00;;;;5065450;28;20060;-70
2021/05/25 09:20:42;;;;;;;7.53;4.45;;;;;5.40;101015.00;;;;5065624;28;20025;-69
2021/05/25 09:23:11;;;;;;;10.20;6.40;;;;;5.30;101019.00;;;;5065703;28;20043;-70
2021/05/25 09:25:50;;;;;;;5.40;3.50;;;;;5.30;101023.00;;;;5066152;28;20099;-71
2021/05/25 09:28:17;;;;;;;8.00;3.90;;;;;5.40;101040.00;;;;5065729;28;20044;-70
2021/05/25 09:30:46;;;;;;;8.93;6.45;;;;;5.40;101039.00;;;;5065547;28;20112;-71
2021/05/25 09:33:13;;;;;;;6.00;5.40;;;;;5.40;101047.00;;;;5065098;28;20025;-69
2021/05/25 09:35:43;;;;;;;4.88;4.38;;;;;5.40;101055.00;;;;5066162;28;20052;-67
2021/05/25 09:38:26;;;;;;;14.27;12.50;;;;;5.30;101041.00;;;;5067924;28;20028;-70
2021/05/25 09:40:58;;;;;;;13.30;10.25;;;;;5.30;101077.00;;;;5069510;28;20050;-69
2021/05/25 09:43:29;;;;;;;9.80;7.20;;;;;5.30;101065.00;;;;5069251;28;20025;-70
2021/05/25 09:45:55;;;;;;;10.40;7.43;;;;;5.20;101082.00;;;;5070000;28;20017;-65
2021/05/25 09:48:24;;;;;;;7.88;4.30;;;;;5.20;101080.00;;;;5069182;28;20057;-67
2021/05/25 09:50:53;;;;;;;12.98;8.60;;;;;5.30;101073.00;;;;5069491;28;20048;-69
2021/05/25 09:53:28;;;;;;;8.32;6.25;;;;;5.30;101068.00;;;;5069186;28;20028;-70
2021/05/25 09:56:00;;;;;;;7.03;4.93;;;;;5.40;101092.00;;;;5069035;28;20032;-68
2021/05/25 09:58:32;;;;;;;;;;;;;5.30;101093.00;;;;5069845;28;20059;-69
2021/05/25 10:01:04;;;;;;;7.20;5.68;;;;;5.40;101071.00;;;;5069568;28;20548;-70
2021/05/25 10:03:33;;;;;;;6.95;4.80;;;;;5.40;101089.00;;;;5068722;28;20086;-71
2021/05/25 10:06:01;;;;;;;11.68;5.47;;;;;5.40;101104.00;;;;5068704;28;20029;-70
2021/05/25 10:08:29;;;;;;;6.20;4.07;;;;;5.50;101095.00;;;;5069098;28;20028;-67
2021/05/25 10:10:58;;;;;;;9.15;5.05;;;;;5.50;101111.00;;;;5069048;28;20043;-67
2021/05/25 10:13:27;;;;;;;6.00;5.07;;;;;5.50;101117.00;;;;5069146;28;20020;-68
2021/05/25 10:15:54;;;;;;;6.35;3.70;;;;;5.50;101130.00;;;;5068908;28;20036;-66
2021/05/25 10:20:58;;;;;;;7.38;3.83;;;;;5.60;101118.00;;;;5068903;28;20039;-68
2021/05/25 10:23:28;;;;;;;5.88;4.38;;;;;5.60;101139.00;;;;5069020;28;20020;-70
2021/05/25 10:25:57;;;;;;;11.63;4.40;;;;;5.70;101139.00;;;;5069103;28;20020;-66
2021/05/25 10:28:23;;;;;;;5.88;3.88;;;;;5.80;101148.00;;;;5068561;28;20030;-69
2021/05/25 10:30:52;;;;;;;21.15;6.55;;;;;5.80;101140.00;;;;5068281;28;20031;-69
2021/05/25 10:33:21;;;;;;;8.13;4.93;;;;;5.80;101149.00;;;;5068588;28;20032;-66
2021/05/25 10:35:53;;;;;;;12.85;5.55;;;;;5.90;101154.00;;;;5068775;28;20051;-69
2021/05/25 10:38:34;;;;;;;9.05;4.30;;;;;5.80;101162.00;;;;5068451;28;20035;-66
2021/05/25 10:41:05;;;;;;;6.55;3.90;;;;;6.00;101137.00;;;;5068928;28;20544;-69
2021/05/25 10:43:39;;;;;;;15.77;3.88;;;;;7.30;101066.00;;;;5068303;28;20032;-67
2021/05/25 10:46:12;;;;;;;15.00;4.72;;;;;8.60;101017.00;;;;5068795;28;20029;-69
2021/05/25 10:49:24;;;;;;;16.73;4.20;;;;;10.70;100996.00;;;;5067578;28;20040;-67
2021/05/25 10:51:53;;;;;;;;;;;;;12.00;101015.00;;;;5006885;28;20033;-68
2021/05/25 10:54:29;;;;;;;7.68;2.58;;;;;10.90;101095.00;;;;5006211;28;19914;-69
2021/05/25 10:56:57;;;;;;;5.50;2.97;;;;;9.70;101121.00;;;;5043997;28;20075;-69
2021/05/25 10:59:23;;;;;;;5.95;2.13;;;;;9.70;101081.00;;;;5067925;28;20029;-70
2021/05/25 11:02:00;;;;;;;4.80;2.50;;;;;10.40;101135.00;;;;5067975;28;20033;-68
2021/05/25 11:04:38;;;;;;;11.73;4.38;;;;;10.30;101105.00;;;;5067602;28;20029;-67
2021/05/25 11:07:36;;;;;;;12.38;3.25;;;;;11.00;101116.00;;;;5067990;28;20020;-70
2021/05/25 11:10:27;;;;;;;34.97;5.75;;;;;10.50;101123.00;;;;5067850;28;20387;-67
2021/05/25 11:13:21;;;;;;;10.02;4.55;;;;;12.60;101010.00;;;;5067333;28;20044;-68
2021/05/25 11:22:02;;;;;;;11.30;2.67;;;;;16.30;100991.00;;;;5067196;28;20032;-68
2021/05/25 11:24:45;;;;;;;9.60;2.53;;;;;16.80;100998.00;;;;5067553;28;20506;-69
2021/05/25 11:27:26;;;;;;;15.68;3.25;;;;;16.80;100987.00;;;;5067029;28;20498;-69
2021/05/25 11:29:59;;;;;;;11.38;3.08;;;;;17.20;100969.00;;;;5067142;28;20029;-70
2021/05/25 11:32:28;;;;;;;12.88;5.05;;;;;17.40;100976.00;;;;5067246;28;20513;-71
2021/05/25 11:35:07;;;;;;;17.13;4.53;;;;;18.10;100962.00;;;;5067766;28;20100;-70
2021/05/25 11:37:36;;;;;;;16.80;3.45;;;;;18.00;100947.00;;;;5067522;28;20021;-70
2021/05/25 11:40:07;;;;;;;27.63;3.92;;;;;18.50;100975.00;;;;5066399;28;20028;-70
2021/05/25 11:42:34;;;;;;;25.05;4.20;;;;;18.60;101020.00;;;;5067055;28;20026;-72
2021/05/25 11:45:01;;;;;;;14.38;3.42;;;;;18.80;101052.00;;;;5067326;28;20025;-69
2021/05/25 11:47:27;;;;;;;7.88;2.58;;;;;18.80;101022.00;;;;5067043;28;20507;-69
2021/05/25 11:49:55;;;;;;;9.10;2.67;;;;;19.00;101068.00;;;;5067357;28;20020;-67
2021/05/25 11:52:32;;;;;;;11.52;3.35;;;;;20.10;101062.00;;;;5066302;28;20024;-68
2021/05/25 11:55:05;;;;;;;9.18;3.50;;;;;20.20;101040.00;;;;5066626;28;20271;-69
2021/05/25 11:57:40;;;;;;;20.60;3.60;;;;;20.60;101051.00;;;;5067240;28;20209;-67
2021/05/25 12:00:09;;;;;;;17.50;3.35;;;;;20.70;101060.00;;;;5066596;28;20381;-70
2021/05/25 12:02:36;;;;;;;10.43;3.85;;;;;20.60;101067.00;;;;5066239;28;20028;-71
2021/05/25 12:05:15;;;;;;;7.50;2.97;;;;;21.30;101055.00;;;;5066728;28;20040;-71
2021/05/25 12:07:43;;;;;;;18.48;4.28;;;;;21.70;101083.00;;;;5066434;28;20629;-69
2021/05/25 12:10:13;;;;;;;15.50;3.00;;;;;22.00;101093.00;;;;5067071;28;20031;-68
2021/05/25 12:12:45;;;;;;;3.55;2.53;;;;;22.00;101094.00;;;;5066939;28;20027;-70
2021/05/25 12:15:22;;;;;;;4.32;2.60;;;;;22.20;101062.00;;;;5066014;28;20483;-68
2021/05/25 12:17:54;;;;;;;20.73;4.57;;;;;22.20;101021.00;;;;5066782;28;20506;-69
2021/05/25 12:20:37;;;;;;;5.45;3.45;;;;;22.10;101047.00;;;;5066091;28;20572;-71
2021/05/25 12:23:09;;;;;;;4.45;3.03;;;;;22.60;101072.00;;;;5066189;28;20483;-70
2021/05/25 12:25:36;;;;;;;13.00;4.03;;;;;22.80;101081.00;;;;5066106;28;20090;-72
2021/05/25 12:28:17;;;;;;;8.23;3.03;;;;;22.70;101132.00;;;;5066413;28;20096;-69
2021/05/25 12:30:51;;;;;;;11.05;2.92;;;;;23.50;101160.00;;;;5066112;28;20039;-72
2021/05/25 12:33:23;;;;;;;5.90;3.30;;;;;23.10;101117.00;;;;5066943;28;20024;-66
2021/05/25 12:35:50;;;;;;;9.50;3.30;;;;;23.10;101113.00;;;;5066965;28;20098;-71